sensor_id;sensor_type;location;lat;lon;timestamp;P1;durP1;ratioP1;P2;durP2;ratioP2
24147;SDS011;12309;51.450;-2.624;2022-08-11T00:01:52;8.38;;;2.50;;
24147;SDS011;12309;51.450;-2.624;2022-08-11T00:04:20;5.63;;;2.20;;
24147;SDS011;12309;51.450;-2.624;2022-08-11T00:06:49;4.97;;;2.00;;
24147;SDS011;12309;51.450;-2.624;2022-08-11T00:09:17;7.50;;;2.17;;
24147;SDS011;12309;51.450;-2.624;2022-08-11T00:11:48;4.35;;;1.90;;
24147;SDS011;12309;51.450;-2.624;2022-08-11T00:16:43;7.72;;;2.17;;
24147;SDS011;12309;51.450;-2.624;2022-08-11T00:19:25;6.10;;;2.33;;
24147;SDS011;12309;51.450;-2.624;2022-08-11T00:21:56;9.25;;;2.25;;
24147;SDS011;12309;51.450;-2.624;2022-08-11T00:24:23;10.45;;;2.53;;
24147;SDS011;12309;51.450;-2.624;2022-08-11T00:26:53;12.00;;;3.22;;
24147;SDS011;12309;51.450;-2.624;2022-08-11T00:29:19;15.68;;;2.83;;
24147;SDS011;12309;51.450;-2.624;2022-08-11T00:31:48;8.73;;;2.85;;
24147;SDS011;12309;51.450;-2.624;2022-08-11T00:34:17;6.82;;;2.53;;
24147;SDS011;12309;51.450;-2.624;2022-08-11T00:36:51;5.25;;;1.90;;
24147;SDS011;12309;51.450;-2.624;2022-08-11T00:39:21;9.32;;;2.15;;
24147;SDS011;12309;51.450;-2.624;2022-08-11T00:47:18;7.55;;;1.90;;
24147;SDS011;12309;51.450;-2.624;2022-08-11T01:01:38;6.00;;;2.17;;
24147;SDS011;12309;51.450;-2.624;2022-08-11T01:06:59;8.07;;;2.10;;
24147;SDS011;12309;51.450;-2.624;2022-08-11T01:34:19;6.20;;;2.75;;
24147;SDS011;12309;51.450;-2.624;2022-08-11T01:39:45;6.70;;;2.45;;
24147;SDS011;12309;51.450;-2.624;2022-08-11T01:54:14;8.88;;;2.20;;
24147;SDS011;12309;51.450;-2.624;2022-08-11T01:56:57;5.00;;;2.35;;
24147;SDS011;12309;51.450;-2.624;2022-08-11T01:59:34;5.28;;;2.30;;
24147;SDS011;12309;51.450;-2.624;2022-08-11T02:05:13;3.20;;;1.85;;
24147;SDS011;12309;51.450;-2.624;2022-08-11T02:13:52;6.90;;;2.53;;
24147;SDS011;12309;51.450;-2.624;2022-08-11T02:16:12;4.95;;;2.22;;
24147;SDS011;12309;51.450;-2.624;2022-08-11T02:18:54;4.85;;;2.28;;
24147;SDS011;12309;51.450;-2.624;2022-08-11T02:25:21;11.90;;;2.60;;
24147;SDS011;12309;51.450;-2.624;2022-08-11T02:28:42;5.68;;;2.15;;
24147;SDS011;12309;51.450;-2.624;2022-08-11T02:33:44;11.68;;;2.10;;
24147;SDS011;12309;51.450;-2.624;2022-08-11T02:36:17;4.25;;;2.10;;
24147;SDS011;12309;51.450;-2.624;2022-08-11T02:49:57;5.03;;;1.88;;
24147;SDS011;12309;51.450;-2.624;2022-08-11T03:03:53;3.63;;;1.67;;
24147;SDS011;12309;51.450;-2.624;2022-08-11T03:06:47;5.30;;;2.35;;
24147;SDS011;12309;51.450;-2.624;2022-08-11T03:12:24;7.50;;;2.20;;
24147;SDS011;12309;51.450;-2.624;2022-08-11T03:15:20;5.95;;;2.00;;
24147;SDS011;12309;51.450;-2.624;2022-08-11T03:21:36;2.92;;;1.70;;
24147;SDS011;12309;51.450;-2.624;2022-08-11T03:24:17;6.15;;;2.20;;
24147;SDS011;12309;51.450;-2.624;2022-08-11T03:29:30;6.32;;;2.40;;
24147;SDS011;12309;51.450;-2.624;2022-08-11T03:35:02;8.88;;;2.45;;
24147;SDS011;12309;51.450;-2.624;2022-08-11T03:37:36;6.63;;;2.20;;
24147;SDS011;12309;51.450;-2.624;2022-08-11T03:45:59;6.45;;;2.00;;
24147;SDS011;12309;51.450;-2.624;2022-08-11T03:51:52;5.75;;;2.17;;
24147;SDS011;12309;51.450;-2.624;2022-08-11T03:54:46;5.95;;;2.50;;
24147;SDS011;12309;51.450;-2.624;2022-08-11T04:13:56;3.33;;;2.05;;
24147;SDS011;12309;51.450;-2.624;2022-08-11T04:16:53;4.55;;;1.95;;
24147;SDS011;12309;51.450;-2.624;2022-08-11T04:19:51;5.22;;;2.03;;
24147;SDS011;12309;51.450;-2.624;2022-08-11T04:25:28;3.15;;;2.08;;
24147;SDS011;12309;51.450;-2.624;2022-08-11T04:36:46;5.82;;;2.17;;
24147;SDS011;12309;51.450;-2.624;2022-08-11T04:40:33;14.57;;;3.03;;
24147;SDS011;12309;51.450;-2.624;2022-08-11T04:57:40;7.65;;;2.47;;
24147;SDS011;12309;51.450;-2.624;2022-08-11T05:00:44;6.97;;;2.40;;
24147;SDS011;12309;51.450;-2.624;2022-08-11T05:09:20;8.52;;;2.63;;
24147;SDS011;12309;51.450;-2.624;2022-08-11T05:12:33;5.03;;;2.45;;
24147;SDS011;12309;51.450;-2.624;2022-08-11T05:15:00;5.05;;;2.65;;
24147;SDS011;12309;51.450;-2.624;2022-08-11T05:17:54;6.40;;;2.50;;
24147;SDS011;12309;51.450;-2.624;2022-08-11T05:20:51;10.77;;;2.60;;
24147;SDS011;12309;51.450;-2.624;2022-08-11T05:23:39;3.90;;;2.35;;
24147;SDS011;12309;51.450;-2.624;2022-08-11T05:26:34;7.82;;;3.30;;
24147;SDS011;12309;51.450;-2.624;2022-08-11T05:29:44;6.00;;;2.60;;
24147;SDS011;12309;51.450;-2.624;2022-08-11T05:32:37;11.15;;;3.08;;
24147;SDS011;12309;51.450;-2.624;2022-08-11T05:35:32;19.58;;;3.30;;
24147;SDS011;12309;51.450;-2.624;2022-08-11T05:38:15;6.63;;;3.00;;
24147;SDS011;12309;51.450;-2.624;2022-08-11T05:41:03;8.90;;;2.88;;
24147;SDS011;12309;51.450;-2.624;2022-08-11T05:43:49;4.55;;;2.95;;
24147;SDS011;12309;51.450;-2.624;2022-08-11T05:46:37;12.40;;;3.13;;
24147;SDS011;12309;51.450;-2.624;2022-08-11T05:49:23;12.95;;;3.10;;
24147;SDS011;12309;51.450;-2.624;2022-08-11T05:52:13;12.05;;;3.75;;
24147;SDS011;12309;51.450;-2.624;2022-08-11T05:55:06;15.13;;;3.45;;
24147;SDS011;12309;51.450;-2.624;2022-08-11T05:57:55;12.77;;;3.65;;
24147;SDS011;12309;51.450;-2.624;2022-08-11T06:00:25;10.48;;;3.35;;
24147;SDS011;12309;51.450;-2.624;2022-08-11T06:02:55;7.60;;;2.95;;
24147;SDS011;12309;51.450;-2.624;2022-08-11T06:05:30;7.78;;;2.78;;
24147;SDS011;12309;51.450;-2.624;2022-08-11T06:08:01;8.27;;;3.30;;
24147;SDS011;12309;51.450;-2.624;2022-08-11T06:10:33;13.10;;;3.55;;
24147;SDS011;12309;51.450;-2.624;2022-08-11T06:13:04;13.00;;;3.00;;
24147;SDS011;12309;51.450;-2.624;2022-08-11T06:15:32;19.30;;;3.40;;
24147;SDS011;12309;51.450;-2.624;2022-08-11T06:18:08;9.30;;;3.33;;
24147;SDS011;12309;51.450;-2.624;2022-08-11T06:20:44;14.27;;;3.60;;
24147;SDS011;12309;51.450;-2.624;2022-08-11T06:23:13;9.98;;;3.45;;
24147;SDS011;12309;51.450;-2.624;2022-08-11T06:25:42;9.00;;;3.53;;
24147;SDS011;12309;51.450;-2.624;2022-08-11T06:28:09;16.17;;;4.35;;
24147;SDS011;12309;51.450;-2.624;2022-08-11T06:30:39;14.65;;;3.67;;
24147;SDS011;12309;51.450;-2.624;2022-08-11T06:33:10;13.48;;;3.33;;
24147;SDS011;12309;51.450;-2.624;2022-08-11T06:35:47;10.52;;;3.20;;
24147;SDS011;12309;51.450;-2.624;2022-08-11T06:38:52;12.68;;;2.80;;
24147;SDS011;12309;51.450;-2.624;2022-08-11T06:41:25;11.57;;;3.90;;
24147;SDS011;12309;51.450;-2.624;2022-08-11T06:46:37;10.80;;;3.42;;
24147;SDS011;12309;51.450;-2.624;2022-08-11T06:49:09;16.10;;;3.53;;
24147;SDS011;12309;51.450;-2.624;2022-08-11T06:52:03;12.00;;;3.55;;
24147;SDS011;12309;51.450;-2.624;2022-08-11T06:54:43;15.43;;;3.80;;
24147;SDS011;12309;51.450;-2.624;2022-08-11T06:57:19;15.25;;;4.30;;
24147;SDS011;12309;51.450;-2.624;2022-08-11T07:00:04;8.05;;;3.60;;
24147;SDS011;12309;51.450;-2.624;2022-08-11T07:05:22;9.85;;;3.17;;
24147;SDS011;12309;51.450;-2.624;2022-08-11T07:13:58;10.95;;;3.00;;
24147;SDS011;12309;51.450;-2.624;2022-08-11T07:17:06;7.78;;;3.03;;
24147;SDS011;12309;51.450;-2.624;2022-08-11T07:19:35;13.68;;;2.90;;
24147;SDS011;12309;51.450;-2.624;2022-08-11T07:22:22;5.00;;;2.25;;
24147;SDS011;12309;51.450;-2.624;2022-08-11T07:25:10;7.68;;;2.70;;
24147;SDS011;12309;51.450;-2.624;2022-08-11T07:27:58;11.13;;;3.13;;
24147;SDS011;12309;51.450;-2.624;2022-08-11T07:30:46;7.90;;;2.38;;
24147;SDS011;12309;51.450;-2.624;2022-08-11T07:33:16;4.93;;;2.20;;
24147;SDS011;12309;51.450;-2.624;2022-08-11T07:35:51;7.97;;;2.45;;
24147;SDS011;12309;51.450;-2.624;2022-08-11T07:38:26;8.20;;;2.72;;
24147;SDS011;12309;51.450;-2.624;2022-08-11T07:41:12;9.38;;;2.85;;
24147;SDS011;12309;51.450;-2.624;2022-08-11T07:43:40;8.10;;;2.90;;
24147;SDS011;12309;51.450;-2.624;2022-08-11T07:46:07;7.72;;;2.70;;
24147;SDS011;12309;51.450;-2.624;2022-08-11T07:48:53;10.93;;;2.67;;
24147;SDS011;12309;51.450;-2.624;2022-08-11T07:51:39;13.27;;;2.95;;
24147;SDS011;12309;51.450;-2.624;2022-08-11T07:54:25;12.40;;;3.05;;
24147;SDS011;12309;51.450;-2.624;2022-08-11T07:56:51;6.60;;;2.63;;
24147;SDS011;12309;51.450;-2.624;2022-08-11T07:59:17;17.05;;;2.22;;
24147;SDS011;12309;51.450;-2.624;2022-08-11T08:02:03;11.70;;;2.45;;
24147;SDS011;12309;51.450;-2.624;2022-08-11T08:04:47;7.22;;;2.50;;
24147;SDS011;12309;51.450;-2.624;2022-08-11T08:07:32;7.88;;;2.42;;
24147;SDS011;12309;51.450;-2.624;2022-08-11T08:10:18;6.85;;;2.50;;
24147;SDS011;12309;51.450;-2.624;2022-08-11T08:13:03;9.63;;;2.42;;
24147;SDS011;12309;51.450;-2.624;2022-08-11T08:15:49;7.03;;;2.20;;
24147;SDS011;12309;51.450;-2.624;2022-08-11T08:18:35;13.07;;;2.28;;
24147;SDS011;12309;51.450;-2.624;2022-08-11T08:21:03;8.48;;;2.22;;
24147;SDS011;12309;51.450;-2.624;2022-08-11T08:23:36;7.65;;;2.47;;
24147;SDS011;12309;51.450;-2.624;2022-08-11T08:26:07;9.88;;;2.55;;
24147;SDS011;12309;51.450;-2.624;2022-08-11T08:28:54;11.75;;;2.80;;
24147;SDS011;12309;51.450;-2.624;2022-08-11T08:31:44;9.50;;;2.72;;
24147;SDS011;12309;51.450;-2.624;2022-08-11T08:34:12;8.32;;;2.45;;
24147;SDS011;12309;51.450;-2.624;2022-08-11T08:36:46;11.60;;;2.60;;
24147;SDS011;12309;51.450;-2.624;2022-08-11T08:39:17;11.65;;;2.30;;
24147;SDS011;12309;51.450;-2.624;2022-08-11T08:41:45;5.78;;;2.10;;
24147;SDS011;12309;51.450;-2.624;2022-08-11T08:44:20;18.98;;;2.05;;
24147;SDS011;12309;51.450;-2.624;2022-08-11T08:46:48;19.17;;;2.47;;
24147;SDS011;12309;51.450;-2.624;2022-08-11T08:49:18;9.32;;;2.17;;
24147;SDS011;12309;51.450;-2.624;2022-08-11T08:51:51;6.40;;;1.90;;
24147;SDS011;12309;51.450;-2.624;2022-08-11T08:54:22;10.07;;;2.15;;
24147;SDS011;12309;51.450;-2.624;2022-08-11T08:57:10;7.10;;;2.33;;
24147;SDS011;12309;51.450;-2.624;2022-08-11T08:59:41;11.75;;;1.90;;
24147;SDS011;12309;51.450;-2.624;2022-08-11T09:02:11;7.60;;;1.80;;
24147;SDS011;12309;51.450;-2.624;2022-08-11T09:04:38;9.75;;;1.70;;
24147;SDS011;12309;51.450;-2.624;2022-08-11T09:07:09;5.13;;;1.70;;
24147;SDS011;12309;51.450;-2.624;2022-08-11T09:09:46;7.32;;;2.20;;
24147;SDS011;12309;51.450;-2.624;2022-08-11T09:12:15;8.05;;;2.25;;
24147;SDS011;12309;51.450;-2.624;2022-08-11T09:14:45;5.30;;;1.88;;
24147;SDS011;12309;51.450;-2.624;2022-08-11T09:17:42;6.78;;;2.20;;
24147;SDS011;12309;51.450;-2.624;2022-08-11T09:20:19;6.88;;;2.03;;
24147;SDS011;12309;51.450;-2.624;2022-08-11T09:22:49;9.25;;;2.30;;
24147;SDS011;12309;51.450;-2.624;2022-08-11T09:25:38;6.28;;;2.35;;
24147;SDS011;12309;51.450;-2.624;2022-08-11T09:28:24;7.55;;;2.33;;
24147;SDS011;12309;51.450;-2.624;2022-08-11T09:30:53;12.65;;;2.72;;
24147;SDS011;12309;51.450;-2.624;2022-08-11T09:33:20;8.77;;;2.35;;
24147;SDS011;12309;51.450;-2.624;2022-08-11T09:35:48;6.07;;;2.35;;
24147;SDS011;12309;51.450;-2.624;2022-08-11T09:38:16;7.10;;;2.20;;
24147;SDS011;12309;51.450;-2.624;2022-08-11T09:41:03;6.35;;;1.90;;
24147;SDS011;12309;51.450;-2.624;2022-08-11T09:43:30;5.53;;;1.52;;
24147;SDS011;12309;51.450;-2.624;2022-08-11T09:46:15;2.72;;;1.75;;
24147;SDS011;12309;51.450;-2.624;2022-08-11T09:48:48;5.00;;;2.00;;
24147;SDS011;12309;51.450;-2.624;2022-08-11T09:51:17;4.75;;;2.08;;
24147;SDS011;12309;51.450;-2.624;2022-08-11T09:53:46;6.75;;;1.88;;
24147;SDS011;12309;51.450;-2.624;2022-08-11T09:56:14;8.10;;;1.95;;
24147;SDS011;12309;51.450;-2.624;2022-08-11T09:59:01;10.05;;;1.83;;
24147;SDS011;12309;51.450;-2.624;2022-08-11T10:01:29;8.50;;;2.00;;
24147;SDS011;12309;51.450;-2.624;2022-08-11T10:03:59;8.90;;;1.92;;
24147;SDS011;12309;51.450;-2.624;2022-08-11T10:06:39;5.28;;;1.70;;
24147;SDS011;12309;51.450;-2.624;2022-08-11T10:09:25;12.05;;;1.73;;
24147;SDS011;12309;51.450;-2.624;2022-08-11T10:11:55;11.05;;;2.20;;
24147;SDS011;12309;51.450;-2.624;2022-08-11T10:14:22;4.20;;;1.60;;
24147;SDS011;12309;51.450;-2.624;2022-08-11T10:17:08;7.55;;;1.67;;
24147;SDS011;12309;51.450;-2.624;2022-08-11T10:19:35;5.78;;;1.70;;
24147;SDS011;12309;51.450;-2.624;2022-08-11T10:22:02;6.70;;;1.77;;
24147;SDS011;12309;51.450;-2.624;2022-08-11T10:24:49;7.65;;;1.75;;
24147;SDS011;12309;51.450;-2.624;2022-08-11T10:27:35;6.90;;;1.60;;
24147;SDS011;12309;51.450;-2.624;2022-08-11T10:30:03;7.90;;;1.52;;
24147;SDS011;12309;51.450;-2.624;2022-08-11T10:32:49;8.02;;;1.35;;
24147;SDS011;12309;51.450;-2.624;2022-08-11T10:35:34;2.80;;;1.48;;
24147;SDS011;12309;51.450;-2.624;2022-08-11T10:38:00;5.25;;;1.40;;
24147;SDS011;12309;51.450;-2.624;2022-08-11T10:40:27;5.50;;;1.45;;
24147;SDS011;12309;51.450;-2.624;2022-08-11T10:42:58;2.67;;;1.25;;
24147;SDS011;12309;51.450;-2.624;2022-08-11T10:45:38;7.32;;;1.63;;
24147;SDS011;12309;51.450;-2.624;2022-08-11T10:48:27;3.50;;;1.33;;
24147;SDS011;12309;51.450;-2.624;2022-08-11T10:50:55;8.73;;;1.38;;
24147;SDS011;12309;51.450;-2.624;2022-08-11T10:53:42;6.65;;;1.50;;
24147;SDS011;12309;51.450;-2.624;2022-08-11T10:56:32;7.15;;;1.10;;
24147;SDS011;12309;51.450;-2.624;2022-08-11T10:59:19;3.67;;;1.20;;
24147;SDS011;12309;51.450;-2.624;2022-08-11T11:01:47;7.68;;;1.48;;
24147;SDS011;12309;51.450;-2.624;2022-08-11T11:04:16;2.92;;;1.15;;
24147;SDS011;12309;51.450;-2.624;2022-08-11T11:09:18;2.78;;;1.30;;
24147;SDS011;12309;51.450;-2.624;2022-08-11T11:12:43;2.75;;;1.20;;
24147;SDS011;12309;51.450;-2.624;2022-08-11T11:15:06;4.95;;;1.33;;
24147;SDS011;12309;51.450;-2.624;2022-08-11T11:17:53;3.97;;;1.25;;
24147;SDS011;12309;51.450;-2.624;2022-08-11T11:37:04;2.25;;;1.00;;
24147;SDS011;12309;51.450;-2.624;2022-08-11T11:39:31;3.60;;;1.20;;
24147;SDS011;12309;51.450;-2.624;2022-08-11T11:41:59;2.72;;;1.30;;
24147;SDS011;12309;51.450;-2.624;2022-08-11T11:44:28;2.92;;;1.10;;
24147;SDS011;12309;51.450;-2.624;2022-08-11T11:46:56;5.10;;;1.27;;
24147;SDS011;12309;51.450;-2.624;2022-08-11T11:49:23;4.25;;;1.20;;
24147;SDS011;12309;51.450;-2.624;2022-08-11T11:51:52;1.90;;;1.10;;
24147;SDS011;12309;51.450;-2.624;2022-08-11T11:54:20;6.53;;;1.40;;
24147;SDS011;12309;51.450;-2.624;2022-08-11T11:56:48;8.18;;;1.38;;
24147;SDS011;12309;51.450;-2.624;2022-08-11T11:59:17;1.80;;;1.35;;
24147;SDS011;12309;51.450;-2.624;2022-08-11T12:02:06;4.13;;;1.25;;
24147;SDS011;12309;51.450;-2.624;2022-08-11T12:04:33;2.58;;;1.30;;
24147;SDS011;12309;51.450;-2.624;2022-08-11T12:07:02;4.05;;;1.40;;
24147;SDS011;12309;51.450;-2.624;2022-08-11T12:09:47;3.42;;;1.40;;
24147;SDS011;12309;51.450;-2.624;2022-08-11T12:12:13;2.78;;;1.40;;
24147;SDS011;12309;51.450;-2.624;2022-08-11T12:14:58;9.80;;;1.55;;
24147;SDS011;12309;51.450;-2.624;2022-08-11T12:17:24;4.18;;;1.38;;
24147;SDS011;12309;51.450;-2.624;2022-08-11T12:19:50;2.85;;;1.20;;
24147;SDS011;12309;51.450;-2.624;2022-08-11T12:22:17;6.30;;;1.30;;
24147;SDS011;12309;51.450;-2.624;2022-08-11T12:25:02;5.07;;;1.27;;
24147;SDS011;12309;51.450;-2.624;2022-08-11T12:27:47;2.15;;;1.23;;
24147;SDS011;12309;51.450;-2.624;2022-08-11T12:30:13;6.10;;;1.10;;
24147;SDS011;12309;51.450;-2.624;2022-08-11T12:32:39;4.95;;;1.05;;
24147;SDS011;12309;51.450;-2.624;2022-08-11T12:35:07;2.47;;;1.20;;
24147;SDS011;12309;51.450;-2.624;2022-08-11T12:37:38;4.28;;;1.33;;
24147;SDS011;12309;51.450;-2.624;2022-08-11T12:40:06;3.50;;;1.27;;
24147;SDS011;12309;51.450;-2.624;2022-08-11T12:42:55;6.55;;;1.48;;
24147;SDS011;12309;51.450;-2.624;2022-08-11T12:45:44;1.98;;;1.13;;
24147;SDS011;12309;51.450;-2.624;2022-08-11T12:48:17;3.67;;;1.50;;
24147;SDS011;12309;51.450;-2.624;2022-08-11T12:53:59;7.10;;;1.65;;
24147;SDS011;12309;51.450;-2.624;2022-08-11T12:56:30;5.93;;;1.30;;
24147;SDS011;12309;51.450;-2.624;2022-08-11T12:59:19;3.55;;;1.58;;
24147;SDS011;12309;51.450;-2.624;2022-08-11T13:02:05;2.95;;;1.13;;
24147;SDS011;12309;51.450;-2.624;2022-08-11T13:04:50;4.65;;;1.35;;
24147;SDS011;12309;51.450;-2.624;2022-08-11T13:07:28;4.07;;;1.40;;
24147;SDS011;12309;51.450;-2.624;2022-08-11T13:09:56;2.67;;;1.20;;
24147;SDS011;12309;51.450;-2.624;2022-08-11T13:12:24;3.10;;;1.25;;
24147;SDS011;12309;51.450;-2.624;2022-08-11T13:15:10;4.57;;;1.48;;
24147;SDS011;12309;51.450;-2.624;2022-08-11T13:17:38;3.78;;;1.33;;
24147;SDS011;12309;51.450;-2.624;2022-08-11T13:20:05;6.68;;;1.50;;
24147;SDS011;12309;51.450;-2.624;2022-08-11T13:22:34;3.38;;;1.40;;
24147;SDS011;12309;51.450;-2.624;2022-08-11T13:25:02;1.75;;;1.40;;
24147;SDS011;12309;51.450;-2.624;2022-08-11T13:27:28;5.68;;;1.38;;
24147;SDS011;12309;51.450;-2.624;2022-08-11T13:29:55;4.13;;;1.33;;
24147;SDS011;12309;51.450;-2.624;2022-08-11T13:32:40;3.45;;;1.52;;
24147;SDS011;12309;51.450;-2.624;2022-08-11T13:35:08;3.47;;;1.30;;
24147;SDS011;12309;51.450;-2.624;2022-08-11T13:37:39;5.95;;;1.40;;
24147;SDS011;12309;51.450;-2.624;2022-08-11T13:40:06;5.47;;;1.48;;
24147;SDS011;12309;51.450;-2.624;2022-08-11T13:42:33;3.70;;;1.50;;
24147;SDS011;12309;51.450;-2.624;2022-08-11T13:44:59;6.45;;;1.60;;
24147;SDS011;12309;51.450;-2.624;2022-08-11T13:47:25;7.28;;;1.52;;
24147;SDS011;12309;51.450;-2.624;2022-08-11T13:49:52;4.13;;;1.20;;
24147;SDS011;12309;51.450;-2.624;2022-08-11T13:52:19;2.42;;;1.67;;
24147;SDS011;12309;51.450;-2.624;2022-08-11T13:54:46;2.33;;;1.20;;
24147;SDS011;12309;51.450;-2.624;2022-08-11T13:57:17;5.97;;;1.17;;
24147;SDS011;12309;51.450;-2.624;2022-08-11T13:59:44;5.40;;;1.30;;
24147;SDS011;12309;51.450;-2.624;2022-08-11T14:02:12;3.67;;;1.25;;
24147;SDS011;12309;51.450;-2.624;2022-08-11T14:07:09;3.00;;;1.30;;
24147;SDS011;12309;51.450;-2.624;2022-08-11T14:09:39;5.65;;;1.60;;
24147;SDS011;12309;51.450;-2.624;2022-08-11T14:12:12;3.78;;;1.27;;
24147;SDS011;12309;51.450;-2.624;2022-08-11T14:15:09;4.30;;;1.20;;
24147;SDS011;12309;51.450;-2.624;2022-08-11T14:17:43;4.38;;;1.23;;
24147;SDS011;12309;51.450;-2.624;2022-08-11T14:20:13;3.17;;;1.20;;
24147;SDS011;12309;51.450;-2.624;2022-08-11T14:22:42;3.83;;;1.30;;
24147;SDS011;12309;51.450;-2.624;2022-08-11T14:25:11;2.17;;;1.40;;
24147;SDS011;12309;51.450;-2.624;2022-08-11T14:27:40;3.58;;;1.35;;
24147;SDS011;12309;51.450;-2.624;2022-08-11T14:30:08;9.30;;;1.10;;
24147;SDS011;12309;51.450;-2.624;2022-08-11T14:32:55;5.35;;;1.33;;
24147;SDS011;12309;51.450;-2.624;2022-08-11T14:35:21;3.53;;;1.10;;
24147;SDS011;12309;51.450;-2.624;2022-08-11T14:37:48;6.75;;;1.58;;
24147;SDS011;12309;51.450;-2.624;2022-08-11T14:40:14;4.85;;;1.25;;
24147;SDS011;12309;51.450;-2.624;2022-08-11T14:42:59;2.13;;;1.50;;
24147;SDS011;12309;51.450;-2.624;2022-08-11T14:45:44;4.03;;;1.50;;
24147;SDS011;12309;51.450;-2.624;2022-08-11T14:48:29;2.17;;;1.10;;
24147;SDS011;12309;51.450;-2.624;2022-08-11T14:50:55;3.60;;;1.05;;
24147;SDS011;12309;51.450;-2.624;2022-08-11T14:53:22;2.90;;;1.33;;
24147;SDS011;12309;51.450;-2.624;2022-08-11T14:55:48;3.25;;;1.30;;
24147;SDS011;12309;51.450;-2.624;2022-08-11T14:58:34;4.82;;;1.40;;
24147;SDS011;12309;51.450;-2.624;2022-08-11T15:01:01;4.20;;;1.30;;
24147;SDS011;12309;51.450;-2.624;2022-08-11T15:03:48;2.28;;;1.10;;
24147;SDS011;12309;51.450;-2.624;2022-08-11T15:06:16;3.65;;;1.20;;
24147;SDS011;12309;51.450;-2.624;2022-08-11T15:08:42;3.95;;;1.30;;
24147;SDS011;12309;51.450;-2.624;2022-08-11T15:11:21;4.95;;;1.40;;
24147;SDS011;12309;51.450;-2.624;2022-08-11T15:14:09;2.35;;;1.20;;
24147;SDS011;12309;51.450;-2.624;2022-08-11T15:16:37;8.05;;;1.40;;
24147;SDS011;12309;51.450;-2.624;2022-08-11T15:19:24;3.47;;;1.30;;
24147;SDS011;12309;51.450;-2.624;2022-08-11T15:21:53;3.35;;;1.17;;
24147;SDS011;12309;51.450;-2.624;2022-08-11T15:24:37;3.17;;;1.20;;
24147;SDS011;12309;51.450;-2.624;2022-08-11T15:27:08;2.80;;;1.20;;
24147;SDS011;12309;51.450;-2.624;2022-08-11T15:29:56;4.22;;;1.30;;
24147;SDS011;12309;51.450;-2.624;2022-08-11T15:32:41;3.63;;;1.20;;
24147;SDS011;12309;51.450;-2.624;2022-08-11T15:35:28;4.25;;;1.40;;
24147;SDS011;12309;51.450;-2.624;2022-08-11T15:38:13;6.78;;;1.50;;
24147;SDS011;12309;51.450;-2.624;2022-08-11T15:40:43;2.30;;;1.30;;
24147;SDS011;12309;51.450;-2.624;2022-08-11T15:43:30;7.88;;;1.38;;
24147;SDS011;12309;51.450;-2.624;2022-08-11T15:46:30;4.93;;;1.40;;
24147;SDS011;12309;51.450;-2.624;2022-08-11T15:48:58;2.78;;;1.50;;
24147;SDS011;12309;51.450;-2.624;2022-08-11T15:54:02;4.22;;;1.40;;
24147;SDS011;12309;51.450;-2.624;2022-08-11T15:56:34;4.30;;;1.27;;
24147;SDS011;12309;51.450;-2.624;2022-08-11T15:59:01;10.43;;;1.20;;
24147;SDS011;12309;51.450;-2.624;2022-08-11T16:01:47;2.35;;;1.30;;
24147;SDS011;12309;51.450;-2.624;2022-08-11T16:04:34;2.42;;;1.30;;
24147;SDS011;12309;51.450;-2.624;2022-08-11T16:07:04;3.47;;;1.23;;
24147;SDS011;12309;51.450;-2.624;2022-08-11T16:12:33;2.70;;;1.17;;
24147;SDS011;12309;51.450;-2.624;2022-08-11T16:15:27;8.57;;;1.40;;
24147;SDS011;12309;51.450;-2.624;2022-08-11T16:18:14;5.88;;;1.20;;
24147;SDS011;12309;51.450;-2.624;2022-08-11T16:20:43;2.75;;;1.23;;
24147;SDS011;12309;51.450;-2.624;2022-08-11T16:23:10;3.70;;;1.30;;
24147;SDS011;12309;51.450;-2.624;2022-08-11T16:25:39;1.80;;;1.17;;
24147;SDS011;12309;51.450;-2.624;2022-08-11T16:28:06;3.78;;;1.20;;
24147;SDS011;12309;51.450;-2.624;2022-08-11T16:30:36;2.63;;;1.27;;
24147;SDS011;12309;51.450;-2.624;2022-08-11T16:33:04;2.67;;;1.10;;
24147;SDS011;12309;51.450;-2.624;2022-08-11T16:35:32;4.32;;;1.30;;
24147;SDS011;12309;51.450;-2.624;2022-08-11T16:38:35;5.20;;;1.55;;
24147;SDS011;12309;51.450;-2.624;2022-08-11T16:41:07;8.48;;;1.52;;
24147;SDS011;12309;51.450;-2.624;2022-08-11T16:43:43;1.40;;;1.08;;
24147;SDS011;12309;51.450;-2.624;2022-08-11T16:46:30;3.40;;;1.25;;
24147;SDS011;12309;51.450;-2.624;2022-08-11T16:49:16;5.97;;;1.30;;
24147;SDS011;12309;51.450;-2.624;2022-08-11T16:51:45;2.33;;;1.17;;
24147;SDS011;12309;51.450;-2.624;2022-08-11T16:54:11;3.88;;;1.23;;
24147;SDS011;12309;51.450;-2.624;2022-08-11T16:59:06;1.17;;;1.05;;
24147;SDS011;12309;51.450;-2.624;2022-08-11T17:01:50;3.75;;;1.35;;
24147;SDS011;12309;51.450;-2.624;2022-08-11T17:04:29;4.40;;;1.30;;
24147;SDS011;12309;51.450;-2.624;2022-08-11T17:07:15;3.03;;;1.30;;
24147;SDS011;12309;51.450;-2.624;2022-08-11T17:10:03;5.97;;;1.50;;
24147;SDS011;12309;51.450;-2.624;2022-08-11T17:12:49;1.30;;;1.20;;
24147;SDS011;12309;51.450;-2.624;2022-08-11T17:15:34;1.60;;;1.20;;
24147;SDS011;12309;51.450;-2.624;2022-08-11T17:18:28;2.95;;;1.20;;
24147;SDS011;12309;51.450;-2.624;2022-08-11T17:21:04;5.72;;;1.40;;
24147;SDS011;12309;51.450;-2.624;2022-08-11T17:23:32;2.22;;;1.30;;
24147;SDS011;12309;51.450;-2.624;2022-08-11T17:26:31;5.13;;;1.40;;
24147;SDS011;12309;51.450;-2.624;2022-08-11T17:29:23;3.13;;;1.10;;
24147;SDS011;12309;51.450;-2.624;2022-08-11T17:32:08;5.45;;;1.30;;
24147;SDS011;12309;51.450;-2.624;2022-08-11T17:34:58;7.80;;;1.55;;
24147;SDS011;12309;51.450;-2.624;2022-08-11T17:37:46;5.22;;;1.85;;
24147;SDS011;12309;51.450;-2.624;2022-08-11T17:40:14;2.55;;;1.38;;
24147;SDS011;12309;51.450;-2.624;2022-08-11T17:42:46;2.05;;;1.50;;
24147;SDS011;12309;51.450;-2.624;2022-08-11T17:45:31;2.60;;;1.48;;
24147;SDS011;12309;51.450;-2.624;2022-08-11T17:48:16;5.40;;;1.60;;
24147;SDS011;12309;51.450;-2.624;2022-08-11T17:50:55;2.90;;;1.63;;
24147;SDS011;12309;51.450;-2.624;2022-08-11T17:53:23;5.45;;;1.58;;
24147;SDS011;12309;51.450;-2.624;2022-08-11T17:56:09;5.40;;;1.52;;
24147;SDS011;12309;51.450;-2.624;2022-08-11T17:58:55;5.78;;;1.70;;
24147;SDS011;12309;51.450;-2.624;2022-08-11T18:01:41;3.47;;;1.40;;
24147;SDS011;12309;51.450;-2.624;2022-08-11T18:04:08;6.25;;;1.60;;
24147;SDS011;12309;51.450;-2.624;2022-08-11T18:06:35;3.63;;;1.58;;
24147;SDS011;12309;51.450;-2.624;2022-08-11T18:09:03;4.57;;;1.70;;
24147;SDS011;12309;51.450;-2.624;2022-08-11T18:11:52;5.63;;;1.58;;
24147;SDS011;12309;51.450;-2.624;2022-08-11T18:14:37;5.00;;;2.05;;
24147;SDS011;12309;51.450;-2.624;2022-08-11T18:17:24;7.32;;;1.80;;
24147;SDS011;12309;51.450;-2.624;2022-08-11T18:20:08;10.50;;;2.00;;
24147;SDS011;12309;51.450;-2.624;2022-08-11T18:22:53;3.95;;;1.67;;
24147;SDS011;12309;51.450;-2.624;2022-08-11T18:25:40;4.78;;;1.98;;
24147;SDS011;12309;51.450;-2.624;2022-08-11T18:28:28;4.78;;;2.65;;
24147;SDS011;12309;51.450;-2.624;2022-08-11T18:31:18;3.92;;;2.35;;
24147;SDS011;12309;51.450;-2.624;2022-08-11T18:34:04;4.78;;;2.00;;
24147;SDS011;12309;51.450;-2.624;2022-08-11T18:39:48;4.82;;;2.10;;
24147;SDS011;12309;51.450;-2.624;2022-08-11T18:42:39;7.70;;;2.47;;
24147;SDS011;12309;51.450;-2.624;2022-08-11T18:45:26;4.40;;;1.83;;
24147;SDS011;12309;51.450;-2.624;2022-08-11T18:48:12;14.48;;;2.60;;
24147;SDS011;12309;51.450;-2.624;2022-08-11T18:50:59;7.05;;;1.70;;
24147;SDS011;12309;51.450;-2.624;2022-08-11T18:53:46;6.13;;;1.95;;
24147;SDS011;12309;51.450;-2.624;2022-08-11T18:56:34;5.38;;;2.13;;
24147;SDS011;12309;51.450;-2.624;2022-08-11T18:59:19;10.20;;;2.22;;
24147;SDS011;12309;51.450;-2.624;2022-08-11T19:02:08;9.35;;;2.63;;
24147;SDS011;12309;51.450;-2.624;2022-08-11T19:04:55;9.27;;;2.38;;
24147;SDS011;12309;51.450;-2.624;2022-08-11T19:07:42;5.55;;;1.92;;
24147;SDS011;12309;51.450;-2.624;2022-08-11T19:10:30;7.53;;;2.35;;
24147;SDS011;12309;51.450;-2.624;2022-08-11T19:13:15;7.30;;;2.30;;